GVAC

Amílcar Cabral International Airport

Espargos, Cape Verde
METAR GVAC 140700Z 05016KT 9999 FEW014 22/17 Q1017 NOSIG
Observed Flight Rules
Dec-14 @ 07:00 UTC (42 minutes ago) Visual Flight Rules
Wind Visibility Clouds
50° at 16 knots 10,000+ meters
  • Few at 1,400' AGL
Temperatures Readings
Current 22°C / 72°F
Dewpoint 17°C / 63°F
Humidity 73%
Altimeter 30.03" Hg
Pressure 1017 hPa
Elevation 55
METAR GVAC 140700Z 05016KT 9999 FEW014 22/17 Q1017 NOSIG
Observed Flight Rules
Dec-14 @ 07:00 UTC
(42 minutes ago)
VFR
Wind Visibility
50° at 16 knots 10,000+ meters
Clouds
  • Few at 1,400' AGL
Temperature Dewpoint
22°C / 72°F 17°C / 63°F
Humidity Altimeter Pressure
73% 30.03" Hg 1017 hPa